sensor_id;sensor_type;location;lat;lon;timestamp;pressure;altitude;pressure_sealevel;temperature;humidity
84797;BME280;75028;51.374;21.078;2024-02-23T00:02:06;97520.13;;;8.53;81.11
84797;BME280;75028;51.374;21.078;2024-02-23T00:04:32;97509.50;;;8.61;80.30
84797;BME280;75028;51.374;21.078;2024-02-23T00:06:58;97513.78;;;8.62;79.80
84797;BME280;75028;51.374;21.078;2024-02-23T00:09:24;97507.22;;;8.58;80.26
84797;BME280;75028;51.374;21.078;2024-02-23T00:11:50;97512.50;;;8.58;80.26
84797;BME280;75028;51.374;21.078;2024-02-23T00:14:16;97512.78;;;8.63;81.07
84797;BME280;75028;51.374;21.078;2024-02-23T00:16:46;97516.97;;;8.58;81.29
84797;BME280;75028;51.374;21.078;2024-02-23T00:19:13;97508.88;;;8.59;80.59
84797;BME280;75028;51.374;21.078;2024-02-23T00:21:39;97511.69;;;8.58;80.66
84797;BME280;75028;51.374;21.078;2024-02-23T00:24:06;97517.41;;;8.61;80.76
84797;BME280;75028;51.374;21.078;2024-02-23T00:26:32;97512.97;;;8.62;80.16
84797;BME280;75028;51.374;21.078;2024-02-23T00:28:58;97508.31;;;8.64;80.47
84797;BME280;75028;51.374;21.078;2024-02-23T00:31:24;97502.53;;;8.68;80.02
84797;BME280;75028;51.374;21.078;2024-02-23T00:33:51;97503.22;;;8.62;81.31
84797;BME280;75028;51.374;21.078;2024-02-23T00:36:17;97488.25;;;8.63;80.19
84797;BME280;75028;51.374;21.078;2024-02-23T00:38:43;97490.78;;;8.56;81.00
84797;BME280;75028;51.374;21.078;2024-02-23T00:41:09;97492.78;;;8.54;81.05
84797;BME280;75028;51.374;21.078;2024-02-23T00:43:41;97490.59;;;8.58;80.77
84797;BME280;75028;51.374;21.078;2024-02-23T00:46:08;97478.50;;;8.49;81.25
84797;BME280;75028;51.374;21.078;2024-02-23T00:48:35;97488.53;;;8.45;81.70
84797;BME280;75028;51.374;21.078;2024-02-23T00:51:02;97480.44;;;8.32;82.95
84797;BME280;75028;51.374;21.078;2024-02-23T00:53:30;97481.25;;;8.33;82.78
84797;BME280;75028;51.374;21.078;2024-02-23T00:55:56;97475.75;;;8.42;81.89
84797;BME280;75028;51.374;21.078;2024-02-23T00:58:22;97470.09;;;8.45;82.09
84797;BME280;75028;51.374;21.078;2024-02-23T01:00:48;97475.34;;;8.53;81.49
84797;BME280;75028;51.374;21.078;2024-02-23T01:03:14;97472.03;;;8.51;81.93
84797;BME280;75028;51.374;21.078;2024-02-23T01:05:41;97477.75;;;8.40;83.12
84797;BME280;75028;51.374;21.078;2024-02-23T01:08:08;97467.72;;;8.36;82.63
84797;BME280;75028;51.374;21.078;2024-02-23T01:10:34;97469.47;;;8.43;82.42
84797;BME280;75028;51.374;21.078;2024-02-23T01:13:00;97467.28;;;8.32;83.52
84797;BME280;75028;51.374;21.078;2024-02-23T01:15:26;97467.19;;;8.40;82.09
84797;BME280;75028;51.374;21.078;2024-02-23T01:17:52;97458.94;;;8.43;81.91
84797;BME280;75028;51.374;21.078;2024-02-23T01:20:19;97463.38;;;8.43;82.57
84797;BME280;75028;51.374;21.078;2024-02-23T01:22:45;97463.47;;;8.35;82.91
84797;BME280;75028;51.374;21.078;2024-02-23T01:25:12;97459.25;;;8.26;84.05
84797;BME280;75028;51.374;21.078;2024-02-23T01:27:38;97463.97;;;8.30;83.64
84797;BME280;75028;51.374;21.078;2024-02-23T01:30:05;97458.38;;;8.33;83.75
84797;BME280;75028;51.374;21.078;2024-02-23T01:32:31;97467.84;;;8.42;82.61
84797;BME280;75028;51.374;21.078;2024-02-23T01:34:57;97458.41;;;8.48;82.97
84797;BME280;75028;51.374;21.078;2024-02-23T01:37:23;97454.13;;;8.47;83.08
84797;BME280;75028;51.374;21.078;2024-02-23T01:39:49;97457.41;;;8.49;83.06
84797;BME280;75028;51.374;21.078;2024-02-23T01:42:15;97453.41;;;8.53;82.74
84797;BME280;75028;51.374;21.078;2024-02-23T01:44:41;97456.22;;;8.51;83.41
84797;BME280;75028;51.374;21.078;2024-02-23T01:47:07;97459.41;;;8.47;83.63
84797;BME280;75028;51.374;21.078;2024-02-23T01:49:33;97450.03;;;8.44;83.96
84797;BME280;75028;51.374;21.078;2024-02-23T01:52:01;97448.59;;;8.42;83.61
84797;BME280;75028;51.374;21.078;2024-02-23T01:54:29;97446.88;;;8.49;83.61
84797;BME280;75028;51.374;21.078;2024-02-23T01:56:56;97456.41;;;8.50;83.43
84797;BME280;75028;51.374;21.078;2024-02-23T01:59:23;97451.63;;;8.53;83.40
84797;BME280;75028;51.374;21.078;2024-02-23T02:01:51;97452.59;;;8.52;83.47
84797;BME280;75028;51.374;21.078;2024-02-23T02:04:17;97450.78;;;8.53;83.59
84797;BME280;75028;51.374;21.078;2024-02-23T02:06:45;97447.97;;;8.54;83.22
84797;BME280;75028;51.374;21.078;2024-02-23T02:09:12;97463.09;;;8.60;83.28
84797;BME280;75028;51.374;21.078;2024-02-23T02:11:48;97456.53;;;8.56;83.62
84797;BME280;75028;51.374;21.078;2024-02-23T02:14:15;97451.72;;;8.60;82.93
84797;BME280;75028;51.374;21.078;2024-02-23T02:16:41;97453.81;;;8.64;83.06
84797;BME280;75028;51.374;21.078;2024-02-23T02:19:13;97448.72;;;8.63;83.62
84797;BME280;75028;51.374;21.078;2024-02-23T02:21:40;97450.34;;;8.64;83.53
84797;BME280;75028;51.374;21.078;2024-02-23T02:24:07;97452.63;;;8.67;83.31
84797;BME280;75028;51.374;21.078;2024-02-23T02:26:34;97453.91;;;8.56;84.27
84797;BME280;75028;51.374;21.078;2024-02-23T02:29:01;97457.16;;;8.58;83.59
84797;BME280;75028;51.374;21.078;2024-02-23T02:31:27;97460.09;;;8.63;83.42
84797;BME280;75028;51.374;21.078;2024-02-23T02:33:53;97458.81;;;8.59;83.70
84797;BME280;75028;51.374;21.078;2024-02-23T02:36:19;97463.09;;;8.60;84.15
84797;BME280;75028;51.374;21.078;2024-02-23T02:38:45;97459.75;;;8.66;83.17
84797;BME280;75028;51.374;21.078;2024-02-23T02:41:11;97453.47;;;8.67;84.47
84797;BME280;75028;51.374;21.078;2024-02-23T02:43:37;97461.63;;;8.72;83.10
84797;BME280;75028;51.374;21.078;2024-02-23T02:46:03;97458.38;;;8.70;82.33
84797;BME280;75028;51.374;21.078;2024-02-23T02:48:29;97470.28;;;8.66;83.46
84797;BME280;75028;51.374;21.078;2024-02-23T02:50:55;97460.53;;;8.67;83.25
84797;BME280;75028;51.374;21.078;2024-02-23T02:53:21;97462.13;;;8.76;82.63
84797;BME280;75028;51.374;21.078;2024-02-23T02:55:47;97464.41;;;8.79;83.30
84797;BME280;75028;51.374;21.078;2024-02-23T02:58:13;97462.75;;;8.78;82.16
84797;BME280;75028;51.374;21.078;2024-02-23T03:00:39;97465.00;;;8.81;82.85
84797;BME280;75028;51.374;21.078;2024-02-23T03:03:06;97462.31;;;8.89;81.56
84797;BME280;75028;51.374;21.078;2024-02-23T03:05:32;97461.31;;;8.90;81.98
84797;BME280;75028;51.374;21.078;2024-02-23T03:07:58;97461.31;;;8.90;82.21
84797;BME280;75028;51.374;21.078;2024-02-23T03:10:24;97460.41;;;8.97;81.35
84797;BME280;75028;51.374;21.078;2024-02-23T03:12:50;97464.50;;;9.00;81.50
84797;BME280;75028;51.374;21.078;2024-02-23T03:15:16;97463.69;;;8.99;81.96
84797;BME280;75028;51.374;21.078;2024-02-23T03:17:42;97461.88;;;9.00;81.38
84797;BME280;75028;51.374;21.078;2024-02-23T03:20:08;97459.88;;;9.02;81.02
84797;BME280;75028;51.374;21.078;2024-02-23T03:22:35;97469.97;;;8.98;81.42
84797;BME280;75028;51.374;21.078;2024-02-23T03:25:02;97477.25;;;8.96;82.15
84797;BME280;75028;51.374;21.078;2024-02-23T03:27:35;97480.69;;;8.97;82.34
84797;BME280;75028;51.374;21.078;2024-02-23T03:30:04;97478.50;;;9.00;82.14
84797;BME280;75028;51.374;21.078;2024-02-23T03:32:31;97477.88;;;8.98;83.02
84797;BME280;75028;51.374;21.078;2024-02-23T03:35:03;97479.59;;;8.91;83.51
84797;BME280;75028;51.374;21.078;2024-02-23T03:37:30;97488.19;;;8.85;85.63
84797;BME280;75028;51.374;21.078;2024-02-23T03:39:55;97478.75;;;8.76;85.99
84797;BME280;75028;51.374;21.078;2024-02-23T03:42:22;97479.09;;;8.73;86.10
84797;BME280;75028;51.374;21.078;2024-02-23T03:44:48;97491.00;;;8.69;86.83
84797;BME280;75028;51.374;21.078;2024-02-23T03:47:14;97488.91;;;8.65;87.25
84797;BME280;75028;51.374;21.078;2024-02-23T03:49:40;97493.25;;;8.58;87.34
84797;BME280;75028;51.374;21.078;2024-02-23T03:52:06;97493.94;;;8.52;88.07
84797;BME280;75028;51.374;21.078;2024-02-23T03:54:32;97498.56;;;8.50;88.06
84797;BME280;75028;51.374;21.078;2024-02-23T03:56:58;97499.25;;;8.44;89.46
84797;BME280;75028;51.374;21.078;2024-02-23T03:59:24;97496.34;;;8.39;89.18
84797;BME280;75028;51.374;21.078;2024-02-23T04:01:50;97497.63;;;8.43;89.45
84797;BME280;75028;51.374;21.078;2024-02-23T04:04:17;97491.50;;;8.50;88.74
84797;BME280;75028;51.374;21.078;2024-02-23T04:06:43;97485.38;;;8.50;87.86
84797;BME280;75028;51.374;21.078;2024-02-23T04:09:09;97478.84;;;8.46;88.30
84797;BME280;75028;51.374;21.078;2024-02-23T04:11:35;97477.38;;;8.43;89.32
84797;BME280;75028;51.374;21.078;2024-02-23T04:14:01;97492.19;;;8.44;88.63
84797;BME280;75028;51.374;21.078;2024-02-23T04:16:28;97494.00;;;8.44;89.17
84797;BME280;75028;51.374;21.078;2024-02-23T04:18:54;97494.47;;;8.47;88.57
84797;BME280;75028;51.374;21.078;2024-02-23T04:21:22;97505.19;;;8.46;88.97
84797;BME280;75028;51.374;21.078;2024-02-23T04:23:48;97506.19;;;8.45;88.96
84797;BME280;75028;51.374;21.078;2024-02-23T04:26:14;97515.91;;;8.44;89.60
84797;BME280;75028;51.374;21.078;2024-02-23T04:28:41;97508.50;;;8.40;88.89
84797;BME280;75028;51.374;21.078;2024-02-23T04:31:10;97515.72;;;8.46;89.05
84797;BME280;75028;51.374;21.078;2024-02-23T04:33:37;97523.19;;;8.42;89.39
84797;BME280;75028;51.374;21.078;2024-02-23T04:36:04;97522.63;;;8.47;88.27
84797;BME280;75028;51.374;21.078;2024-02-23T04:38:30;97524.31;;;8.62;87.14
84797;BME280;75028;51.374;21.078;2024-02-23T04:40:58;97521.75;;;8.54;87.98
84797;BME280;75028;51.374;21.078;2024-02-23T04:43:24;97522.56;;;8.55;87.64
84797;BME280;75028;51.374;21.078;2024-02-23T04:45:51;97534.06;;;8.62;87.33
84797;BME280;75028;51.374;21.078;2024-02-23T04:48:17;97531.59;;;8.60;87.19
84797;BME280;75028;51.374;21.078;2024-02-23T04:50:43;97521.56;;;8.56;87.93
84797;BME280;75028;51.374;21.078;2024-02-23T04:53:09;97525.03;;;8.56;87.58
84797;BME280;75028;51.374;21.078;2024-02-23T04:55:35;97529.13;;;8.59;87.54
84797;BME280;75028;51.374;21.078;2024-02-23T04:58:01;97528.13;;;8.60;88.09
84797;BME280;75028;51.374;21.078;2024-02-23T05:00:27;97531.47;;;8.54;88.45
84797;BME280;75028;51.374;21.078;2024-02-23T05:03:00;97538.75;;;8.52;89.05
84797;BME280;75028;51.374;21.078;2024-02-23T05:05:32;97533.88;;;8.41;90.33
84797;BME280;75028;51.374;21.078;2024-02-23T05:07:58;97535.09;;;8.30;91.81
84797;BME280;75028;51.374;21.078;2024-02-23T05:10:25;97537.38;;;8.33;91.42
84797;BME280;75028;51.374;21.078;2024-02-23T05:12:51;97549.78;;;8.25;93.00
84797;BME280;75028;51.374;21.078;2024-02-23T05:15:17;97550.44;;;8.19;92.39
84797;BME280;75028;51.374;21.078;2024-02-23T05:17:43;97558.06;;;8.14;93.37
84797;BME280;75028;51.374;21.078;2024-02-23T05:20:09;97551.59;;;8.16;93.18
84797;BME280;75028;51.374;21.078;2024-02-23T05:22:36;97561.19;;;8.09;94.29
84797;BME280;75028;51.374;21.078;2024-02-23T05:25:03;97558.41;;;8.03;95.49
84797;BME280;75028;51.374;21.078;2024-02-23T05:27:31;97569.78;;;8.03;95.38
84797;BME280;75028;51.374;21.078;2024-02-23T05:29:57;97570.94;;;8.01;96.80
84797;BME280;75028;51.374;21.078;2024-02-23T05:32:23;97568.94;;;8.03;95.23
84797;BME280;75028;51.374;21.078;2024-02-23T05:34:49;97574.34;;;8.09;94.59
84797;BME280;75028;51.374;21.078;2024-02-23T05:37:18;97579.78;;;8.08;95.50
84797;BME280;75028;51.374;21.078;2024-02-23T05:39:45;97589.03;;;8.04;96.18
84797;BME280;75028;51.374;21.078;2024-02-23T05:42:14;97591.19;;;8.00;96.87
84797;BME280;75028;51.374;21.078;2024-02-23T05:44:44;97600.25;;;7.98;96.49
84797;BME280;75028;51.374;21.078;2024-02-23T05:47:10;97607.31;;;7.97;97.07
84797;BME280;75028;51.374;21.078;2024-02-23T05:49:37;97604.03;;;7.95;97.62
84797;BME280;75028;51.374;21.078;2024-02-23T05:52:03;97614.06;;;7.92;97.64
84797;BME280;75028;51.374;21.078;2024-02-23T05:54:29;97617.72;;;7.91;98.33
84797;BME280;75028;51.374;21.078;2024-02-23T05:56:55;97617.72;;;7.91;98.65
84797;BME280;75028;51.374;21.078;2024-02-23T05:59:21;97615.41;;;7.88;98.75
84797;BME280;75028;51.374;21.078;2024-02-23T06:01:47;97614.41;;;7.88;98.76
84797;BME280;75028;51.374;21.078;2024-02-23T06:04:13;97619.69;;;7.88;99.43
84797;BME280;75028;51.374;21.078;2024-02-23T06:06:42;97624.94;;;7.88;98.79
84797;BME280;75028;51.374;21.078;2024-02-23T06:09:09;97635.81;;;7.85;99.38
84797;BME280;75028;51.374;21.078;2024-02-23T06:11:35;97623.50;;;7.78;99.51
84797;BME280;75028;51.374;21.078;2024-02-23T06:14:01;97627.44;;;7.82;100.00
84797;BME280;75028;51.374;21.078;2024-02-23T06:16:27;97639.09;;;7.79;100.00
84797;BME280;75028;51.374;21.078;2024-02-23T06:18:54;97642.56;;;7.80;100.00
84797;BME280;75028;51.374;21.078;2024-02-23T06:21:20;97645.38;;;7.78;100.00
84797;BME280;75028;51.374;21.078;2024-02-23T06:23:46;97650.63;;;7.78;100.00
84797;BME280;75028;51.374;21.078;2024-02-23T06:26:12;97648.81;;;7.79;100.00
84797;BME280;75028;51.374;21.078;2024-02-23T06:28:39;97649.63;;;7.79;100.00
84797;BME280;75028;51.374;21.078;2024-02-23T06:31:07;97648.31;;;7.83;100.00
84797;BME280;75028;51.374;21.078;2024-02-23T06:33:34;97654.06;;;7.87;100.00
84797;BME280;75028;51.374;21.078;2024-02-23T06:36:00;97656.38;;;7.82;100.00
84797;BME280;75028;51.374;21.078;2024-02-23T06:38:29;97661.16;;;7.87;100.00
84797;BME280;75028;51.374;21.078;2024-02-23T06:40:55;97665.75;;;7.84;100.00
84797;BME280;75028;51.374;21.078;2024-02-23T06:43:22;97672.97;;;7.82;100.00
84797;BME280;75028;51.374;21.078;2024-02-23T06:45:49;97675.16;;;7.79;100.00
84797;BME280;75028;51.374;21.078;2024-02-23T06:48:14;97683.34;;;7.84;100.00
84797;BME280;75028;51.374;21.078;2024-02-23T06:50:41;97675.78;;;7.89;100.00
84797;BME280;75028;51.374;21.078;2024-02-23T06:53:07;97687.78;;;7.92;100.00
84797;BME280;75028;51.374;21.078;2024-02-23T06:55:34;97689.75;;;7.89;100.00
84797;BME280;75028;51.374;21.078;2024-02-23T06:58:00;97689.28;;;7.86;100.00
84797;BME280;75028;51.374;21.078;2024-02-23T07:00:26;97695.16;;;7.88;100.00
84797;BME280;75028;51.374;21.078;2024-02-23T07:02:52;97693.03;;;7.92;100.00
84797;BME280;75028;51.374;21.078;2024-02-23T07:05:18;97692.19;;;7.91;100.00
84797;BME280;75028;51.374;21.078;2024-02-23T07:07:44;97707.34;;;7.89;100.00
84797;BME280;75028;51.374;21.078;2024-02-23T07:10:10;97706.38;;;7.90;100.00
84797;BME280;75028;51.374;21.078;2024-02-23T07:12:37;97706.88;;;7.94;100.00
84797;BME280;75028;51.374;21.078;2024-02-23T07:15:03;97704.06;;;7.95;100.00
84797;BME280;75028;51.374;21.078;2024-02-23T07:17:31;97711.78;;;7.97;100.00
84797;BME280;75028;51.374;21.078;2024-02-23T07:19:58;97712.59;;;7.97;100.00
84797;BME280;75028;51.374;21.078;2024-02-23T07:22:31;97722.63;;;8.02;100.00
84797;BME280;75028;51.374;21.078;2024-02-23T07:24:58;97718.66;;;8.06;100.00
84797;BME280;75028;51.374;21.078;2024-02-23T07:27:24;97718.03;;;8.04;100.00
84797;BME280;75028;51.374;21.078;2024-02-23T07:29:50;97718.19;;;8.02;100.00
84797;BME280;75028;51.374;21.078;2024-02-23T07:32:16;97721.00;;;8.01;100.00
84797;BME280;75028;51.374;21.078;2024-02-23T07:34:42;97726.91;;;8.03;100.00
84797;BME280;75028;51.374;21.078;2024-02-23T07:37:08;97728.38;;;8.05;100.00
84797;BME280;75028;51.374;21.078;2024-02-23T07:39:35;97733.47;;;8.07;100.00
84797;BME280;75028;51.374;21.078;2024-02-23T07:42:01;97738.38;;;8.10;100.00
84797;BME280;75028;51.374;21.078;2024-02-23T07:44:28;97741.03;;;8.18;100.00
84797;BME280;75028;51.374;21.078;2024-02-23T07:46:54;97749.25;;;8.23;100.00
84797;BME280;75028;51.374;21.078;2024-02-23T07:49:21;97748.94;;;8.26;100.00
84797;BME280;75028;51.374;21.078;2024-02-23T07:51:50;97741.69;;;8.28;100.00
84797;BME280;75028;51.374;21.078;2024-02-23T07:54:16;97741.47;;;8.37;100.00
84797;BME280;75028;51.374;21.078;2024-02-23T07:56:42;97739.97;;;8.43;100.00
84797;BME280;75028;51.374;21.078;2024-02-23T07:59:08;97748.22;;;8.40;100.00
84797;BME280;75028;51.374;21.078;2024-02-23T08:01:34;97740.97;;;8.42;100.00
84797;BME280;75028;51.374;21.078;2024-02-23T08:04:00;97738.63;;;8.47;100.00
84797;BME280;75028;51.374;21.078;2024-02-23T08:06:26;97755.13;;;8.49;100.00
84797;BME280;75028;51.374;21.078;2024-02-23T08:08:52;97749.00;;;8.56;100.00
84797;BME280;75028;51.374;21.078;2024-02-23T08:11:19;97745.50;;;8.64;100.00
84797;BME280;75028;51.374;21.078;2024-02-23T08:13:45;97753.06;;;8.67;100.00
84797;BME280;75028;51.374;21.078;2024-02-23T08:16:11;97759.31;;;8.66;100.00
84797;BME280;75028;51.374;21.078;2024-02-23T08:18:38;97767.41;;;8.64;100.00
84797;BME280;75028;51.374;21.078;2024-02-23T08:21:05;97760.31;;;8.65;100.00
84797;BME280;75028;51.374;21.078;2024-02-23T08:23:31;97766.22;;;8.67;100.00
84797;BME280;75028;51.374;21.078;2024-02-23T08:25:57;97761.47;;;8.62;100.00
84797;BME280;75028;51.374;21.078;2024-02-23T08:28:24;97764.59;;;8.66;100.00
84797;BME280;75028;51.374;21.078;2024-02-23T08:30:50;97765.09;;;8.69;100.00
84797;BME280;75028;51.374;21.078;2024-02-23T08:33:16;97770.38;;;8.69;100.00
84797;BME280;75028;51.374;21.078;2024-02-23T08:35:42;97775.44;;;8.71;100.00
84797;BME280;75028;51.374;21.078;2024-02-23T08:38:08;97771.31;;;8.76;100.00
84797;BME280;75028;51.374;21.078;2024-02-23T08:40:34;97776.03;;;8.81;100.00
84797;BME280;75028;51.374;21.078;2024-02-23T08:43:00;97780.69;;;8.79;100.00
84797;BME280;75028;51.374;21.078;2024-02-23T08:45:26;97774.75;;;8.77;100.00
84797;BME280;75028;51.374;21.078;2024-02-23T08:47:52;97783.66;;;8.76;100.00
84797;BME280;75028;51.374;21.078;2024-02-23T08:50:18;97792.06;;;8.79;100.00
84797;BME280;75028;51.374;21.078;2024-02-23T08:52:45;97794.50;;;8.81;100.00
84797;BME280;75028;51.374;21.078;2024-02-23T08:55:11;97798.31;;;8.78;100.00
84797;BME280;75028;51.374;21.078;2024-02-23T08:57:37;97800.94;;;8.78;100.00
84797;BME280;75028;51.374;21.078;2024-02-23T09:00:04;97810.69;;;8.78;100.00
84797;BME280;75028;51.374;21.078;2024-02-23T09:02:31;97806.22;;;8.78;100.00
84797;BME280;75028;51.374;21.078;2024-02-23T09:05:01;97801.91;;;8.85;100.00
84797;BME280;75028;51.374;21.078;2024-02-23T09:07:27;97805.88;;;8.81;100.00
84797;BME280;75028;51.374;21.078;2024-02-23T09:09:53;97810.16;;;8.82;100.00
84797;BME280;75028;51.374;21.078;2024-02-23T09:12:20;97804.88;;;8.82;100.00
84797;BME280;75028;51.374;21.078;2024-02-23T09:14:46;97807.66;;;8.89;100.00
84797;BME280;75028;51.374;21.078;2024-02-23T09:17:14;97814.09;;;8.86;100.00
84797;BME280;75028;51.374;21.078;2024-02-23T09:19:40;97808.97;;;8.93;100.00
84797;BME280;75028;51.374;21.078;2024-02-23T09:22:06;97820.00;;;8.96;100.00
84797;BME280;75028;51.374;21.078;2024-02-23T09:24:32;97822.16;;;8.93;100.00
84797;BME280;75028;51.374;21.078;2024-02-23T09:26:59;97812.78;;;8.90;100.00
84797;BME280;75028;51.374;21.078;2024-02-23T09:29:25;97821.31;;;8.92;100.00
84797;BME280;75028;51.374;21.078;2024-02-23T09:31:51;97812.69;;;9.06;100.00
84797;BME280;75028;51.374;21.078;2024-02-23T09:34:18;97819.91;;;9.12;100.00
84797;BME280;75028;51.374;21.078;2024-02-23T09:36:44;97828.69;;;9.05;100.00
84797;BME280;75028;51.374;21.078;2024-02-23T09:39:10;97827.69;;;9.06;100.00
84797;BME280;75028;51.374;21.078;2024-02-23T09:41:38;97835.44;;;9.07;100.00
84797;BME280;75028;51.374;21.078;2024-02-23T09:44:05;97837.91;;;9.01;100.00
84797;BME280;75028;51.374;21.078;2024-02-23T09:46:34;97830.19;;;8.99;100.00
84797;BME280;75028;51.374;21.078;2024-02-23T09:49:02;97836.28;;;9.00;100.00
84797;BME280;75028;51.374;21.078;2024-02-23T09:51:30;97833.25;;;9.11;100.00
84797;BME280;75028;51.374;21.078;2024-02-23T09:53:57;97833.44;;;9.09;100.00
84797;BME280;75028;51.374;21.078;2024-02-23T09:56:27;97842.00;;;9.11;100.00
84797;BME280;75028;51.374;21.078;2024-02-23T09:58:59;97846.28;;;9.12;100.00
84797;BME280;75028;51.374;21.078;2024-02-23T10:01:32;97847.28;;;9.11;100.00
84797;BME280;75028;51.374;21.078;2024-02-23T10:04:00;97840.53;;;9.09;100.00
84797;BME280;75028;51.374;21.078;2024-02-23T10:06:27;97843.50;;;9.06;100.00
84797;BME280;75028;51.374;21.078;2024-02-23T10:08:53;97847.00;;;9.06;100.00
84797;BME280;75028;51.374;21.078;2024-02-23T10:11:21;97845.31;;;9.05;100.00
84797;BME280;75028;51.374;21.078;2024-02-23T10:13:50;97853.38;;;9.12;100.00
84797;BME280;75028;51.374;21.078;2024-02-23T10:16:19;97853.72;;;9.09;100.00
84797;BME280;75028;51.374;21.078;2024-02-23T10:18:48;97853.41;;;9.04;100.00
84797;BME280;75028;51.374;21.078;2024-02-23T10:21:16;97857.38;;;9.00;100.00
84797;BME280;75028;51.374;21.078;2024-02-23T10:23:44;97853.09;;;8.99;100.00
84797;BME280;75028;51.374;21.078;2024-02-23T10:26:11;97860.34;;;8.97;100.00
84797;BME280;75028;51.374;21.078;2024-02-23T10:28:37;97856.22;;;9.02;100.00
84797;BME280;75028;51.374;21.078;2024-02-23T10:31:06;97862.03;;;8.98;100.00
84797;BME280;75028;51.374;21.078;2024-02-23T10:33:32;97867.63;;;8.95;100.00
84797;BME280;75028;51.374;21.078;2024-02-23T10:36:00;97871.09;;;8.87;100.00
84797;BME280;75028;51.374;21.078;2024-02-23T10:38:26;97872.75;;;8.88;100.00
84797;BME280;75028;51.374;21.078;2024-02-23T10:40:55;97878.50;;;8.92;100.00
84797;BME280;75028;51.374;21.078;2024-02-23T10:43:33;97878.84;;;8.89;100.00
84797;BME280;75028;51.374;21.078;2024-02-23T10:46:02;97878.84;;;8.89;100.00
84797;BME280;75028;51.374;21.078;2024-02-23T10:48:33;97879.53;;;8.83;100.00
84797;BME280;75028;51.374;21.078;2024-02-23T10:51:02;97884.13;;;8.89;100.00
84797;BME280;75028;51.374;21.078;2024-02-23T10:53:31;97891.69;;;8.84;100.00
84797;BME280;75028;51.374;21.078;2024-02-23T10:55:58;97891.03;;;8.90;100.00
84797;BME280;75028;51.374;21.078;2024-02-23T10:58:25;97892.50;;;8.92;100.00
84797;BME280;75028;51.374;21.078;2024-02-23T11:00:51;97900.25;;;8.94;100.00
84797;BME280;75028;51.374;21.078;2024-02-23T11:03:19;97895.81;;;8.94;100.00
84797;BME280;75028;51.374;21.078;2024-02-23T11:05:48;97897.28;;;8.97;100.00
84797;BME280;75028;51.374;21.078;2024-02-23T11:08:17;97902.53;;;8.97;100.00
84797;BME280;75028;51.374;21.078;2024-02-23T11:10:51;97903.22;;;8.91;100.00
84797;BME280;75028;51.374;21.078;2024-02-23T11:13:18;97906.50;;;8.93;100.00
84797;BME280;75028;51.374;21.078;2024-02-23T11:15:44;97907.00;;;8.88;100.00
84797;BME280;75028;51.374;21.078;2024-02-23T11:18:23;97906.84;;;8.90;100.00
84797;BME280;75028;51.374;21.078;2024-02-23T11:20:59;97912.63;;;8.85;100.00
84797;BME280;75028;51.374;21.078;2024-02-23T11:23:26;97913.63;;;8.84;100.00
84797;BME280;75028;51.374;21.078;2024-02-23T11:26:05;97925.00;;;8.85;100.00
84797;BME280;75028;51.374;21.078;2024-02-23T11:28:54;97926.47;;;8.87;100.00
84797;BME280;75028;51.374;21.078;2024-02-23T11:31:25;97935.53;;;8.85;100.00
84797;BME280;75028;51.374;21.078;2024-02-23T11:33:56;97935.53;;;8.85;100.00
84797;BME280;75028;51.374;21.078;2024-02-23T11:36:30;97934.22;;;8.89;100.00
84797;BME280;75028;51.374;21.078;2024-02-23T11:38:58;97933.53;;;8.87;100.00
84797;BME280;75028;51.374;21.078;2024-02-23T11:41:25;97931.56;;;8.89;100.00
84797;BME280;75028;51.374;21.078;2024-02-23T11:43:53;97938.31;;;8.91;100.00
84797;BME280;75028;51.374;21.078;2024-02-23T11:46:20;97927.59;;;8.93;100.00
84797;BME280;75028;51.374;21.078;2024-02-23T11:48:46;97935.22;;;8.88;100.00
84797;BME280;75028;51.374;21.078;2024-02-23T11:51:13;97925.31;;;8.90;100.00
84797;BME280;75028;51.374;21.078;2024-02-23T11:53:40;97936.47;;;9.00;100.00
84797;BME280;75028;51.374;21.078;2024-02-23T11:56:07;97933.00;;;8.99;100.00
84797;BME280;75028;51.374;21.078;2024-02-23T11:58:33;97942.25;;;9.03;100.00
84797;BME280;75028;51.374;21.078;2024-02-23T12:01:01;97945.69;;;9.04;100.00
84797;BME280;75028;51.374;21.078;2024-02-23T12:03:29;97944.72;;;9.05;100.00
84797;BME280;75028;51.374;21.078;2024-02-23T12:06:00;97954.59;;;9.03;100.00
84797;BME280;75028;51.374;21.078;2024-02-23T12:08:26;97952.28;;;9.08;100.00
84797;BME280;75028;51.374;21.078;2024-02-23T12:10:57;97943.84;;;9.12;100.00
84797;BME280;75028;51.374;21.078;2024-02-23T12:13:26;97952.09;;;9.17;100.00
84797;BME280;75028;51.374;21.078;2024-02-23T12:15:53;97953.59;;;9.12;100.00
84797;BME280;75028;51.374;21.078;2024-02-23T12:18:22;97952.94;;;9.10;100.00
84797;BME280;75028;51.374;21.078;2024-02-23T12:21:01;97947.97;;;9.23;100.00
84797;BME280;75028;51.374;21.078;2024-02-23T12:23:48;97949.72;;;9.38;100.00
84797;BME280;75028;51.374;21.078;2024-02-23T12:26:17;97945.44;;;9.37;100.00
84797;BME280;75028;51.374;21.078;2024-02-23T12:28:44;97947.53;;;9.50;100.00
84797;BME280;75028;51.374;21.078;2024-02-23T12:31:10;97954.59;;;9.49;100.00
84797;BME280;75028;51.374;21.078;2024-02-23T12:33:38;97950.34;;;9.48;100.00
84797;BME280;75028;51.374;21.078;2024-02-23T12:36:06;97956.09;;;9.52;100.00
84797;BME280;75028;51.374;21.078;2024-02-23T12:38:33;97957.34;;;9.64;100.00
84797;BME280;75028;51.374;21.078;2024-02-23T12:41:02;97962.97;;;9.69;100.00
84797;BME280;75028;51.374;21.078;2024-02-23T12:43:28;97961.63;;;9.65;100.00
84797;BME280;75028;51.374;21.078;2024-02-23T12:45:56;97956.22;;;9.58;100.00
84797;BME280;75028;51.374;21.078;2024-02-23T12:48:23;97965.66;;;9.45;100.00
84797;BME280;75028;51.374;21.078;2024-02-23T12:50:50;97975.75;;;9.41;100.00
84797;BME280;75028;51.374;21.078;2024-02-23T12:53:36;97974.94;;;9.41;100.00
84797;BME280;75028;51.374;21.078;2024-02-23T12:56:05;97974.94;;;9.41;100.00